Time;durP1;ratioP1;P1;durP2;ratioP2;P2;SDS_P1;SDS_P2;PMS_P1;PMS_P2;Temp;Humidity;BMP_temperature;BMP_pressure;BME280_temperature;BME280_humidity;BME280_pressure;Samples;Min_cycle;Max_cycle;Signal;HPM_P1;HPM_P2
2022/10/10 00:00:17;;;;;;;;;;;8.00;99.90;;;;;;5959955;24;19922;-95
2022/10/10 00:02:43;;;;;;;;;;;7.90;99.90;;;;;;5959552;24;19938;-95
2022/10/10 00:05:09;;;;;;;;;;;7.90;99.90;;;;;;5960128;24;19918;-94
2022/10/10 00:07:34;;;;;;;;;;;7.90;99.90;;;;;;5960447;24;20319;-95
2022/10/10 00:10:00;;;;;;;;;;;7.80;99.90;;;;;;5983740;24;20419;-94
2022/10/10 00:12:25;;;;;;;;;;;7.80;99.90;;;;;;5959019;24;19918;-94
2022/10/10 00:14:51;;;;;;;;;;;7.80;99.90;;;;;;5960159;24;19914;-94
2022/10/10 00:17:16;;;;;;;;;;;7.80;99.90;;;;;;5960577;24;20265;-95
2022/10/10 00:19:42;;;;;;;;;;;7.80;99.90;;;;;;5960806;24;19918;-94
2022/10/10 00:22:07;;;;;;;;;;;7.80;99.90;;;;;;5959703;24;20031;-95
2022/10/10 00:24:33;;;;;;;;;;;7.70;99.90;;;;;;6001267;24;19927;-95
2022/10/10 00:26:59;;;;;;;;;;;7.70;99.90;;;;;;5996008;24;20004;-94
2022/10/10 00:29:24;;;;;;;;;;;7.60;99.90;;;;;;5960163;24;19915;-94
2022/10/10 00:31:50;;;;;;;;;;;7.60;99.90;;;;;;5959228;24;19925;-94
2022/10/10 00:34:15;;;;;;;;;;;7.60;99.90;;;;;;5983109;24;19925;-94
2022/10/10 00:36:41;;;;;;;;;;;7.60;99.90;;;;;;5960353;24;19922;-95
2022/10/10 00:39:06;;;;;;;;;;;7.60;99.90;;;;;;5959753;24;20325;-95
2022/10/10 00:41:32;;;;;;;;;;;7.50;99.90;;;;;;5958549;24;19922;-95
2022/10/10 00:44:08;;;;;;;;;;;7.50;99.90;;;;;;5958442;24;19922;-95
2022/10/10 00:46:34;;;;;;;;;;;7.60;99.90;;;;;;5959653;24;19918;-94
2022/10/10 00:49:00;;;;;;;;;;;7.60;99.90;;;;;;5960076;24;19922;-95
2022/10/10 00:51:26;;;;;;;;;;;7.70;99.90;;;;;;5961894;24;20367;-95
2022/10/10 00:53:54;;;;;;;;;;;7.70;99.90;;;;;;5986942;24;19985;-94
2022/10/10 00:56:21;;;;;;;;;;;7.70;99.90;;;;;;5967285;24;19942;-94
2022/10/10 00:58:49;;;;;;;;;;;7.70;99.90;;;;;;5986030;24;19922;-94
2022/10/10 01:01:15;;;;;;;;;;;7.60;99.90;;;;;;5984405;24;20290;-95
2022/10/10 01:03:41;;;;;;;;;;;7.70;99.90;;;;;;5984826;24;19939;-95
2022/10/10 01:06:06;;;;;;;;;;;7.70;99.90;;;;;;5984954;24;19957;-95
2022/10/10 01:08:32;;;;;;;;;;;7.60;99.90;;;;;;5988659;24;19922;-95
2022/10/10 01:11:08;;;;;;;;;;;7.70;99.90;;;;;;5964488;24;19922;-95
2022/10/10 01:13:54;;;;;;;;;;;7.60;99.90;;;;;;5961763;24;19923;-94
2022/10/10 01:16:26;;;;;;;;;;;7.60;99.90;;;;;;6005929;23;19915;-95
2022/10/10 01:19:12;;;;;;;;;;;7.40;99.90;;;;;;5960578;24;20222;-95
2022/10/10 01:21:56;;;;;;;;;;;7.50;99.90;;;;;;5941354;24;19914;-95
2022/10/10 01:24:32;;;;;;;;;;;7.50;99.90;;;;;;5965791;24;19914;-95
2022/10/10 01:27:06;;;;;;;;;;;7.50;99.90;;;;;;5992340;24;19914;-95
2022/10/10 01:29:34;;;;;;;;;;;7.60;99.90;;;;;;5992770;24;19919;-95
2022/10/10 01:32:07;;;;;;;;;;;7.60;99.90;;;;;;5974378;24;19921;-95
2022/10/10 01:34:39;;;;;;;;;;;7.60;99.90;;;;;;5965334;24;19922;-95
2022/10/10 01:37:18;;;;;;;;;;;7.60;99.90;;;;;;5993700;24;19970;-93
2022/10/10 01:39:44;;;;;;;;;;;7.50;99.90;;;;;;5962857;24;19914;-94
2022/10/10 01:42:17;;;;;;;;;;;7.50;99.90;;;;;;5986071;24;19919;-96
2022/10/10 01:44:44;;;;;;;;;;;7.40;99.90;;;;;;5963126;24;19926;-95
2022/10/10 01:47:10;;;;;;;;;;;7.40;99.90;;;;;;5963881;24;19927;-94
2022/10/10 01:49:36;;;;;;;;;;;7.40;99.90;;;;;;5962294;24;19915;-94
2022/10/10 01:52:20;;;;;;;;;;;7.50;99.90;;;;;;5984177;24;19938;-94
2022/10/10 01:54:49;;;;;;;;;;;7.40;99.90;;;;;;5964851;24;19918;-95
2022/10/10 01:57:27;;;;;;;;;;;7.40;99.90;;;;;;5987128;24;19918;-95
2022/10/10 02:00:09;;;;;;;;;;;7.30;99.90;;;;;;5963449;24;19958;-94
2022/10/10 02:02:35;;;;;;;;;;;7.30;99.90;;;;;;5983683;24;20306;-95
2022/10/10 02:05:22;;;;;;;;;;;7.30;99.90;;;;;;5960809;24;19945;-95
2022/10/10 02:07:52;;;;;;;;;;;7.30;99.90;;;;;;5985518;24;19919;-95
2022/10/10 02:10:20;;;;;;;;;;;7.30;99.90;;;;;;5961822;24;19954;-95
2022/10/10 02:12:47;;;;;;;;;;;7.20;99.90;;;;;;5983996;24;20322;-94
2022/10/10 02:15:15;;;;;;;;;;;7.20;99.90;;;;;;5986741;24;19943;-94
2022/10/10 02:17:41;;;;;;;;;;;7.10;99.90;;;;;;5963281;24;19914;-94
2022/10/10 02:20:09;;;;;;;;;;;7.20;99.90;;;;;;5986109;24;19915;-95
2022/10/10 02:22:35;;;;;;;;;;;7.10;99.90;;;;;;5963967;24;19925;-94
2022/10/10 02:25:01;;;;;;;;;;;7.10;99.90;;;;;;5988498;24;19985;-94
2022/10/10 02:27:47;;;;;;;;;;;7.10;99.90;;;;;;5965734;24;20348;-95
2022/10/10 02:30:13;;;;;;;;;;;7.10;99.90;;;;;;5992616;24;19960;-94
2022/10/10 02:32:38;;;;;;;;;;;7.00;99.90;;;;;;5995546;24;19918;-94
2022/10/10 02:35:09;;;;;;;;;;;7.00;99.90;;;;;;5982747;23;19914;-94
2022/10/10 02:37:35;;;;;;;;;;;7.00;99.90;;;;;;5984031;24;19907;-94
2022/10/10 02:40:03;;;;;;;;;;;6.90;99.90;;;;;;5982149;23;19913;-94
2022/10/10 02:42:29;;;;;;;;;;;6.90;99.90;;;;;;5985382;24;19906;-95
2022/10/10 02:44:55;;;;;;;;;;;6.90;99.90;;;;;;5985162;24;20072;-95
2022/10/10 02:47:20;;;;;;;;;;;6.90;99.90;;;;;;5971935;24;19952;-94
2022/10/10 02:49:46;;;;;;;;;;;6.90;99.90;;;;;;5960783;24;19990;-94
2022/10/10 02:52:13;;;;;;;;;;;6.90;99.90;;;;;;5984691;24;20343;-95
2022/10/10 02:54:39;;;;;;;;;;;6.90;99.90;;;;;;5985227;24;19987;-95
2022/10/10 02:57:05;;;;;;;;;;;6.80;99.90;;;;;;5984096;24;19918;-94
2022/10/10 02:59:30;;;;;;;;;;;6.80;99.90;;;;;;5961270;24;19949;-94
2022/10/10 03:01:56;;;;;;;;;;;6.80;99.90;;;;;;5960202;24;19915;-94
2022/10/10 03:04:22;;;;;;;;;;;6.80;99.90;;;;;;5982425;24;19923;-92
2022/10/10 03:06:47;;;;;;;;;;;6.80;99.90;;;;;;5958504;24;20389;-92
2022/10/10 03:09:13;;;;;;;;;;;6.70;99.90;;;;;;5983330;24;19915;-93
2022/10/10 03:11:39;;;;;;;;;;;6.70;99.90;;;;;;6005506;23;19915;-92
2022/10/10 03:14:04;;;;;;;;;;;6.70;99.90;;;;;;5958581;24;19926;-92
2022/10/10 03:16:30;;;;;;;;;;;6.70;99.90;;;;;;6005733;23;19915;-92
2022/10/10 03:18:55;;;;;;;;;;;6.70;99.90;;;;;;5959441;24;19921;-93
2022/10/10 03:21:21;;;;;;;;;;;6.70;99.90;;;;;;5959111;24;20056;-92
2022/10/10 03:23:46;;;;;;;;;;;6.70;99.90;;;;;;5959163;24;19979;-93
2022/10/10 03:26:12;;;;;;;;;;;6.70;99.90;;;;;;5983158;24;19922;-93
2022/10/10 03:28:38;;;;;;;;;;;6.70;99.90;;;;;;5959152;24;19945;-92
2022/10/10 03:31:03;;;;;;;;;;;6.70;99.90;;;;;;5957659;24;20229;-92
2022/10/10 03:33:29;;;;;;;;;;;6.70;99.90;;;;;;5979953;24;19925;-92
2022/10/10 03:35:55;;;;;;;;;;;6.70;99.90;;;;;;5957569;24;20252;-93
2022/10/10 03:38:20;;;;;;;;;;;6.70;99.90;;;;;;5958512;24;19918;-92
2022/10/10 03:40:46;;;;;;;;;;;6.70;99.90;;;;;;5981601;24;19914;-93
2022/10/10 03:43:12;;;;;;;;;;;6.70;99.90;;;;;;6005687;23;20252;-93
2022/10/10 03:45:40;;;;;;;;;;;6.80;99.90;;;;;;5982956;24;19914;-93
2022/10/10 03:48:06;;;;;;;;;;;6.70;99.90;;;;;;6005785;23;20237;-92
2022/10/10 03:50:31;;;;;;;;;;;6.70;99.90;;;;;;5957216;24;19914;-93
2022/10/10 03:52:57;;;;;;;;;;;6.60;99.90;;;;;;5958749;24;19918;-92
2022/10/10 03:55:22;;;;;;;;;;;6.70;99.90;;;;;;5981985;24;19918;-93
2022/10/10 03:57:48;;;;;;;;;;;6.70;99.90;;;;;;5958542;24;19914;-92
2022/10/10 04:00:14;;;;;;;;;;;6.70;99.90;;;;;;5981140;24;20329;-93
2022/10/10 04:02:39;;;;;;;;;;;6.70;99.90;;;;;;5957663;24;19915;-92
2022/10/10 04:05:05;;;;;;;;;;;6.70;99.90;;;;;;5981465;24;20395;-93
2022/10/10 04:07:30;;;;;;;;;;;6.70;99.90;;;;;;5958013;24;19914;-93
2022/10/10 04:09:56;;;;;;;;;;;6.70;99.90;;;;;;5957513;24;20329;-92
2022/10/10 04:12:22;;;;;;;;;;;6.70;99.90;;;;;;5984068;24;19926;-93
2022/10/10 04:14:47;;;;;;;;;;;6.70;99.90;;;;;;5961989;24;19946;-90
2022/10/10 04:17:13;;;;;;;;;;;6.70;99.90;;;;;;5964190;24;19921;-92
2022/10/10 04:19:39;;;;;;;;;;;6.70;99.90;;;;;;5958801;24;19985;-92
2022/10/10 04:22:04;;;;;;;;;;;6.70;99.90;;;;;;5981776;24;19922;-92
2022/10/10 04:24:30;;;;;;;;;;;6.70;99.90;;;;;;6004090;23;19950;-92
2022/10/10 04:26:56;;;;;;;;;;;6.70;99.90;;;;;;5957845;24;20259;-92
2022/10/10 04:29:21;;;;;;;;;;;6.70;99.90;;;;;;6006431;23;19919;-92
2022/10/10 04:31:47;;;;;;;;;;;6.70;99.90;;;;;;5994586;24;19921;-93
2022/10/10 04:34:13;;;;;;;;;;;6.70;99.90;;;;;;5960333;24;19925;-93
2022/10/10 04:36:39;;;;;;;;;;;6.70;99.90;;;;;;5992005;24;19914;-92
2022/10/10 04:39:05;;;;;;;;;;;6.70;99.90;;;;;;5994441;24;19923;-93
2022/10/10 04:41:30;;;;;;;;;;;6.70;99.90;;;;;;5981368;24;19950;-94
2022/10/10 04:43:56;;;;;;;;;;;6.70;99.90;;;;;;6004450;23;20230;-93
2022/10/10 04:46:22;;;;;;;;;;;6.80;99.90;;;;;;5982090;24;19918;-93
2022/10/10 04:48:48;;;;;;;;;;;6.60;99.90;;;;;;5981879;24;19921;-92
2022/10/10 04:51:13;;;;;;;;;;;6.70;99.90;;;;;;5981312;24;20642;-93
2022/10/10 04:53:39;;;;;;;;;;;6.70;99.90;;;;;;5982511;24;20491;-94
2022/10/10 04:56:04;;;;;;;;;;;6.70;99.90;;;;;;5958430;24;19997;-93
2022/10/10 04:58:30;;;;;;;;;;;6.70;99.90;;;;;;6004898;23;19943;-93
2022/10/10 05:00:55;;;;;;;;;;;6.70;99.90;;;;;;5958047;24;20229;-92
2022/10/10 05:03:22;;;;;;;;;;;6.70;99.90;;;;;;5978211;24;19950;-93
2022/10/10 05:05:47;;;;;;;;;;;6.70;99.90;;;;;;5981185;24;19993;-93
2022/10/10 05:08:13;;;;;;;;;;;6.80;99.90;;;;;;5959519;24;19999;-94
2022/10/10 05:10:39;;;;;;;;;;;6.80;99.90;;;;;;5959200;24;19918;-93
2022/10/10 05:13:05;;;;;;;;;;;6.80;99.90;;;;;;5980625;24;19923;-92
2022/10/10 05:15:34;;;;;;;;;;;6.80;99.90;;;;;;6004846;23;19921;-93
2022/10/10 05:18:00;;;;;;;;;;;6.80;99.90;;;;;;5981126;24;19922;-93
2022/10/10 05:20:26;;;;;;;;;;;6.80;99.90;;;;;;6004703;23;19918;-92
2022/10/10 05:22:51;;;;;;;;;;;6.90;99.90;;;;;;5958454;24;19915;-93
2022/10/10 05:25:17;;;;;;;;;;;7.00;99.90;;;;;;5958261;24;19922;-93
2022/10/10 05:27:43;;;;;;;;;;;6.80;99.90;;;;;;5980949;24;20241;-93
2022/10/10 05:30:09;;;;;;;;;;;6.80;99.90;;;;;;5959799;24;20270;-91
2022/10/10 05:32:34;;;;;;;;;;;6.80;99.90;;;;;;5959929;24;19933;-92
2022/10/10 05:35:00;;;;;;;;;;;6.80;99.90;;;;;;5954622;24;19915;-93
2022/10/10 05:37:26;;;;;;;;;;;6.70;99.90;;;;;;5960391;24;19919;-93
2022/10/10 05:39:51;;;;;;;;;;;6.80;99.90;;;;;;5959804;24;19925;-92
2022/10/10 05:42:17;;;;;;;;;;;6.70;99.90;;;;;;5958787;24;19915;-94
2022/10/10 05:44:42;;;;;;;;;;;6.80;99.90;;;;;;5983483;24;19914;-94
2022/10/10 05:47:08;;;;;;;;;;;6.80;99.90;;;;;;5962678;24;19915;-94
2022/10/10 05:49:34;;;;;;;;;;;6.80;99.90;;;;;;5959926;24;20342;-94
2022/10/10 05:51:59;;;;;;;;;;;6.80;99.90;;;;;;5960116;24;20356;-92
2022/10/10 05:54:25;;;;;;;;;;;6.80;99.90;;;;;;5983667;24;19918;-94
2022/10/10 05:56:50;;;;;;;;;;;6.90;99.90;;;;;;5958671;24;20345;-93
2022/10/10 05:59:16;;;;;;;;;;;6.90;99.90;;;;;;5980040;24;19954;-94
2022/10/10 06:01:41;;;;;;;;;;;6.90;99.90;;;;;;5982686;24;20365;-92
2022/10/10 06:04:07;;;;;;;;;;;6.90;99.90;;;;;;5984031;24;19937;-92
2022/10/10 06:06:33;;;;;;;;;;;6.90;99.90;;;;;;5961179;24;19954;-93
2022/10/10 06:08:58;;;;;;;;;;;6.90;99.90;;;;;;5964217;24;19918;-92
2022/10/10 06:11:24;;;;;;;;;;;6.90;99.90;;;;;;5989444;24;19922;-94
2022/10/10 06:13:53;;;;;;;;;;;6.90;99.90;;;;;;5990254;24;19992;-92
2022/10/10 06:16:22;;;;;;;;;;;7.00;99.90;;;;;;5966536;24;19943;-93
2022/10/10 06:18:48;;;;;;;;;;;7.00;99.90;;;;;;5967596;24;20343;-93
2022/10/10 06:21:14;;;;;;;;;;;7.10;99.90;;;;;;5968065;24;19954;-95
2022/10/10 06:23:40;;;;;;;;;;;7.20;99.90;;;;;;5999582;24;19914;-93
2022/10/10 06:26:05;;;;;;;;;;;7.20;99.90;;;;;;5997776;23;19915;-92
2022/10/10 06:28:31;;;;;;;;;;;7.30;99.90;;;;;;5984380;24;19906;-93
2022/10/10 06:31:04;;;;;;;;;;;7.40;99.90;;;;;;6030077;23;19950;-92
2022/10/10 06:33:30;;;;;;;;;;;7.50;99.90;;;;;;5958016;24;20285;-93
2022/10/10 06:35:56;;;;;;;;;;;7.50;99.90;;;;;;5959479;24;19998;-92
2022/10/10 06:38:22;;;;;;;;;;;7.60;99.90;;;;;;5960262;24;19915;-93
2022/10/10 06:40:47;;;;;;;;;;;7.60;99.90;;;;;;5958179;24;20356;-92
2022/10/10 06:43:14;;;;;;;;;;;7.70;99.90;;;;;;5969612;24;19926;-93
2022/10/10 06:45:41;;;;;;;;;;;7.70;99.90;;;;;;5989797;24;19990;-95
2022/10/10 06:48:07;;;;;;;;;;;7.80;99.90;;;;;;5986277;24;19918;-96
2022/10/10 06:50:33;;;;;;;;;;;7.80;99.90;;;;;;6008452;23;20344;-94
2022/10/10 06:52:58;;;;;;;;;;;7.90;99.90;;;;;;5960648;24;19919;-92
2022/10/10 06:55:24;;;;;;;;;;;7.90;99.90;;;;;;5959893;24;20370;-93
2022/10/10 06:57:49;;;;;;;;;;;8.00;99.90;;;;;;5959431;24;19921;-93
2022/10/10 07:00:16;;;;;;;;;;;8.00;99.90;;;;;;5982539;24;19949;-94
2022/10/10 07:02:42;;;;;;;;;;;8.10;99.90;;;;;;5962063;24;19918;-93
2022/10/10 07:05:12;;;;;;;;;;;8.20;99.90;;;;;;5963425;24;19925;-93
2022/10/10 07:07:40;;;;;;;;;;;8.20;99.90;;;;;;5988035;24;19981;-94
2022/10/10 07:10:06;;;;;;;;;;;8.30;99.90;;;;;;5959637;24;19914;-94
2022/10/10 07:12:32;;;;;;;;;;;8.40;99.90;;;;;;5983408;24;19918;-94
2022/10/10 07:14:58;;;;;;;;;;;8.40;99.90;;;;;;5959506;24;19948;-93
2022/10/10 07:17:23;;;;;;;;;;;8.50;99.90;;;;;;5958967;24;19934;-95
2022/10/10 07:19:49;;;;;;;;;;;8.60;99.90;;;;;;5960414;24;19970;-94
2022/10/10 07:22:14;;;;;;;;;;;8.60;99.90;;;;;;5959122;24;19914;-93
2022/10/10 07:24:40;;;;;;;;;;;8.70;99.90;;;;;;5983707;24;19915;-94
2022/10/10 07:27:05;;;;;;;;;;;8.70;99.90;;;;;;5966044;24;19910;-95
2022/10/10 07:29:31;;;;;;;;;;;8.80;99.90;;;;;;5985142;24;19963;-94
2022/10/10 07:31:57;;;;;;;;;;;8.90;99.90;;;;;;5986468;24;19972;-95
2022/10/10 07:34:23;;;;;;;;;;;8.90;99.90;;;;;;5965388;24;19961;-94
2022/10/10 07:36:49;;;;;;;;;;;8.90;99.90;;;;;;5968782;24;19954;-93
2022/10/10 07:39:24;;;;;;;;;;;8.90;99.90;;;;;;5961528;24;19930;-94
2022/10/10 07:41:50;;;;;;;;;;;9.00;99.90;;;;;;5984169;24;20024;-94
2022/10/10 07:44:16;;;;;;;;;;;9.00;99.90;;;;;;5963330;24;20069;-95
2022/10/10 07:46:42;;;;;;;;;;;9.10;99.90;;;;;;5962826;24;19921;-95
2022/10/10 07:49:08;;;;;;;;;;;9.20;99.90;;;;;;5967093;24;19915;-93
2022/10/10 07:51:33;;;;;;;;;;;9.20;99.90;;;;;;5995077;24;19941;-95
2022/10/10 07:53:59;;;;;;;;;;;9.20;99.90;;;;;;5967774;24;19919;-94
2022/10/10 07:56:24;;;;;;;;;;;9.30;99.90;;;;;;5963598;24;19920;-93
2022/10/10 07:58:50;;;;;;;;;;;9.30;99.90;;;;;;5960966;24;19914;-94
2022/10/10 08:01:16;;;;;;;;;;;9.40;99.90;;;;;;5961783;24;20372;-94
2022/10/10 08:03:42;;;;;;;;;;;9.50;99.90;;;;;;5986854;24;19941;-94
2022/10/10 08:06:09;;;;;;;;;;;9.60;99.90;;;;;;5981018;24;19922;-93
2022/10/10 08:08:35;;;;;;;;;;;9.60;99.90;;;;;;6005866;23;20005;-91
2022/10/10 08:11:02;;;;;;;;;;;9.70;99.90;;;;;;5958026;24;20015;-91
2022/10/10 08:13:28;;;;;;;;;;;9.80;99.90;;;;;;6004473;23;19949;-92
2022/10/10 08:15:54;;;;;;;;;;;9.80;99.90;;;;;;5982101;24;19914;-93
2022/10/10 08:18:19;;;;;;;;;;;9.80;99.90;;;;;;6004372;23;19957;-93
2022/10/10 08:20:45;;;;;;;;;;;10.00;99.90;;;;;;5958837;24;19985;-93
2022/10/10 08:23:11;;;;;;;;;;;10.00;99.90;;;;;;5988770;24;19937;-94
2022/10/10 08:25:36;;;;;;;;;;;10.10;99.90;;;;;;5961335;24;19985;-95
2022/10/10 08:28:02;;;;;;;;;;;10.30;99.90;;;;;;5961617;24;20294;-91
2022/10/10 08:30:27;;;;;;;;;;;10.20;99.90;;;;;;5960495;24;19926;-95
2022/10/10 08:33:00;;;;;;;;;;;10.20;99.90;;;;;;5973778;24;19943;-95
2022/10/10 08:35:42;;;;;;;;;;;10.30;99.90;;;;;;6006168;23;19902;-95
2022/10/10 08:38:08;;;;;;;;;;;10.30;99.90;;;;;;5969686;24;19934;-96
2022/10/10 08:40:45;;;;;;;;;;;10.50;99.90;;;;;;5988016;24;19978;-96
2022/10/10 08:43:16;;;;;;;;;;;10.40;99.90;;;;;;5964923;24;19918;-96
2022/10/10 08:45:42;;;;;;;;;;;10.50;99.90;;;;;;5962657;24;19966;-96
2022/10/10 08:48:12;;;;;;;;;;;10.50;99.90;;;;;;5971920;24;19915;-95
2022/10/10 08:50:44;;;;;;;;;;;10.60;99.90;;;;;;5975106;24;19942;-94
2022/10/10 08:53:13;;;;;;;;;;;10.70;99.90;;;;;;5960383;24;19921;-95
2022/10/10 08:55:39;;;;;;;;;;;10.70;99.90;;;;;;5959940;24;19954;-95
2022/10/10 08:58:18;;;;;;;;;;;10.80;99.90;;;;;;5959217;24;19921;-94
2022/10/10 09:00:46;;;;;;;;;;;10.90;99.90;;;;;;5984337;24;19922;-94
2022/10/10 09:03:22;;;;;;;;;;;11.00;99.90;;;;;;5980399;24;20321;-93
2022/10/10 09:05:54;;;;;;;;;;;11.10;99.90;;;;;;5957404;24;19915;-92
2022/10/10 09:08:24;;;;;;;;;;;11.20;99.90;;;;;;5981104;24;19971;-92
2022/10/10 09:10:58;;;;;;;;;;;11.30;99.90;;;;;;5958183;24;19922;-93
2022/10/10 09:13:30;;;;;;;;;;;11.40;99.90;;;;;;5982271;24;19918;-95
2022/10/10 09:16:10;;;;;;;;;;;11.50;99.90;;;;;;5959109;24;19926;-94
2022/10/10 09:18:52;;;;;;;;;;;11.60;99.90;;;;;;5976977;24;19914;-95
2022/10/10 09:21:23;;;;;;;;;;;11.70;99.90;;;;;;5961721;24;20222;-94
2022/10/10 09:23:48;;;;;;;;;;;11.80;99.90;;;;;;5959747;24;19914;-95
2022/10/10 09:26:17;;;;;;;;;;;11.90;99.90;;;;;;5991100;24;19919;-95
2022/10/10 09:28:59;;;;;;;;;;;11.90;99.90;;;;;;5984286;24;20143;-91
2022/10/10 09:31:27;;;;;;;;;;;12.10;99.90;;;;;;5958434;24;19929;-92
2022/10/10 09:33:59;;;;;;;;;;;12.20;99.90;;;;;;5986021;24;19939;-94
2022/10/10 09:36:29;;;;;;;;;;;12.30;99.90;;;;;;5986654;24;20322;-93
2022/10/10 09:38:56;;;;;;;;;;;12.40;99.90;;;;;;5959580;24;20273;-94
2022/10/10 09:41:27;;;;;;;;;;;12.50;99.90;;;;;;5964021;24;19917;-95
2022/10/10 10:02:02;;;;;;;;;;;13.40;99.90;;;;;;5998822;23;19922;-96
2022/10/10 10:04:31;;;;;;;;;;;13.40;99.90;;;;;;5961892;23;19922;-96
2022/10/10 10:07:18;;;;;;;;;;;13.60;99.90;;;;;;5977457;24;19919;-96
2022/10/10 10:09:49;;;;;;;;;;;13.60;99.90;;;;;;5982312;23;19925;-96
2022/10/10 10:12:18;;;;;;;;;;;13.60;99.90;;;;;;5976387;24;19918;-95
2022/10/10 10:14:45;;;;;;;;;;;13.60;99.90;;;;;;5983253;24;19902;-96
2022/10/10 10:17:15;;;;;;;;;;;13.60;99.90;;;;;;6031638;23;19946;-94
2022/10/10 10:19:45;;;;;;;;;;;13.70;99.90;;;;;;5999021;24;19918;-93
2022/10/10 10:22:23;;;;;;;;;;;13.70;99.90;;;;;;5988707;24;19930;-96
2022/10/10 10:24:48;;;;;;;;;;;13.70;99.90;;;;;;5971907;24;19919;-96
2022/10/10 10:27:19;;;;;;;;;;;13.80;99.90;;;;;;5987358;24;20293;-96
2022/10/10 10:29:45;;;;;;;;;;;13.80;99.90;;;;;;5964518;24;19922;-96
2022/10/10 10:32:21;;;;;;;;;;;13.70;99.90;;;;;;5963441;24;19915;-96
2022/10/10 10:34:56;;;;;;;;;;;13.70;99.90;;;;;;6012451;23;19918;-94
2022/10/10 10:37:22;;;;;;;;;;;13.80;99.90;;;;;;5984152;24;19966;-94
2022/10/10 10:39:50;;;;;;;;;;;13.80;99.90;;;;;;5962741;24;19919;-95
2022/10/10 10:42:41;;;;;;;;;;;13.90;99.90;;;;;;5992643;24;19915;-94
2022/10/10 10:45:22;;;;;;;;;;;13.90;99.90;;;;;;5965047;24;19918;-94
2022/10/10 10:48:03;;;;;;;;;;;14.00;99.90;;;;;;5971505;24;19957;-96
2022/10/10 10:50:32;;;;;;;;;;;14.00;99.90;;;;;;5974231;24;20001;-96
2022/10/10 10:53:12;;;;;;;;;;;14.20;99.90;;;;;;5969776;24;19922;-95
2022/10/10 10:55:57;;;;;;;;;;;14.20;99.90;;;;;;5976893;24;19918;-96
2022/10/10 10:58:26;;;;;;;;;;;14.30;99.90;;;;;;5979446;24;19910;-95
2022/10/10 11:00:56;;;;;;;;;;;14.40;99.90;;;;;;5962482;24;19946;-96
2022/10/10 11:03:41;;;;;;;;;;;14.40;99.90;;;;;;5962133;24;19914;-96
2022/10/10 11:06:30;;;;;;;;;;;14.50;99.90;;;;;;5983899;24;20290;-95
2022/10/10 11:09:05;;;;;;;;;;;14.50;99.90;;;;;;5877161;24;19919;-95
2022/10/10 11:11:33;;;;;;;;;;;14.60;99.90;;;;;;5904724;24;19954;-95
2022/10/10 11:14:22;;;;;;;;;;;14.70;99.90;;;;;;5880153;24;19964;-95
2022/10/10 11:16:50;;;;;;;;;;;14.70;99.90;;;;;;5828302;24;19970;-93
2022/10/10 11:19:48;;;;;;;;;;;14.80;99.90;;;;;;5884673;24;19915;-96
2022/10/10 12:14:54;;;;;;;;;;;14.40;99.90;;;;;;6036217;23;20050;-95
2022/10/10 12:17:28;;;;;;;;;;;14.40;99.90;;;;;;5979213;23;19917;-92
2022/10/10 12:19:54;;;;;;;;;;;14.40;99.90;;;;;;6015475;23;19929;-94
2022/10/10 12:22:21;;;;;;;;;;;14.40;99.90;;;;;;6034728;23;19922;-93
2022/10/10 12:25:06;;;;;;;;;;;14.50;99.90;;;;;;6039518;23;19946;-94
2022/10/10 12:27:42;;;;;;;;;;;14.50;99.90;;;;;;5987110;23;19925;-93
2022/10/10 12:30:08;;;;;;;;;;;14.40;99.90;;;;;;5986093;23;19966;-92
2022/10/10 12:32:40;;;;;;;;;;;14.50;99.90;;;;;;6011485;23;19929;-94
2022/10/10 12:35:25;;;;;;;;;;;14.50;99.90;;;;;;5987886;23;19917;-91
2022/10/10 12:38:10;;;;;;;;;;;14.50;99.90;;;;;;5987869;23;19918;-92
2022/10/10 12:40:59;;;;;;;;;;;14.60;99.90;;;;;;6029127;23;20229;-91
2022/10/10 12:43:36;;;;;;;;;;;14.60;99.90;;;;;;5993279;23;19953;-94
2022/10/10 12:46:08;;;;;;;;;;;14.60;99.90;;;;;;5990191;23;19918;-94
2022/10/10 12:48:34;;;;;;;;;;;14.60;99.90;;;;;;5987717;23;19932;-91
2022/10/10 12:51:00;;;;;;;;;;;14.60;99.90;;;;;;5989496;23;20218;-93
2022/10/10 12:53:28;;;;;;;;;;;14.50;99.90;;;;;;6019015;23;19918;-94
2022/10/10 12:55:55;;;;;;;;;;;14.60;99.90;;;;;;5992775;23;19918;-92
2022/10/10 12:58:25;;;;;;;;;;;14.50;99.90;;;;;;5984597;23;20317;-92
2022/10/10 13:00:51;;;;;;;;;;;14.50;99.90;;;;;;5988396;23;19914;-94
2022/10/10 13:03:31;;;;;;;;;;;14.50;99.90;;;;;;5988924;23;19928;-94
2022/10/10 13:06:32;;;;;;;;;;;14.50;99.90;;;;;;6017475;23;19917;-93
2022/10/10 13:09:00;;;;;;;;;;;14.40;99.90;;;;;;5852995;24;19919;-92
2022/10/10 13:11:25;;;;;;;;;;;14.50;99.90;;;;;;5849034;24;19923;-93
2022/10/10 13:13:52;;;;;;;;;;;14.40;99.90;;;;;;5892973;24;20082;-94
2022/10/10 13:16:19;;;;;;;;;;;14.40;99.90;;;;;;5892982;24;20244;-95
2022/10/10 13:18:55;;;;;;;;;;;14.40;99.90;;;;;;5871708;24;19919;-95
2022/10/10 13:21:22;;;;;;;;;;;14.30;99.90;;;;;;5895530;24;19994;-95
2022/10/10 13:23:49;;;;;;;;;;;14.30;99.90;;;;;;5871469;24;20327;-94
2022/10/10 13:26:27;;;;;;;;;;;14.40;99.90;;;;;;5871443;24;20020;-94
2022/10/10 13:28:55;;;;;;;;;;;14.30;99.90;;;;;;5870045;24;19919;-93
2022/10/10 13:31:23;;;;;;;;;;;14.30;99.90;;;;;;5893947;24;19920;-95
2022/10/10 13:33:48;;;;;;;;;;;14.20;99.90;;;;;;5894753;24;19962;-95
2022/10/10 13:36:19;;;;;;;;;;;14.20;99.90;;;;;;5894130;24;20296;-94
2022/10/10 13:38:46;;;;;;;;;;;14.20;99.90;;;;;;5893629;24;20041;-93
2022/10/10 13:41:12;;;;;;;;;;;14.20;99.90;;;;;;5871888;24;19915;-96
2022/10/10 13:43:38;;;;;;;;;;;14.20;99.90;;;;;;5985358;23;20309;-96
2022/10/10 13:46:04;;;;;;;;;;;14.10;99.90;;;;;;6013344;23;19977;-94
2022/10/10 13:48:33;;;;;;;;;;;14.10;99.90;;;;;;6013552;23;20281;-94
2022/10/10 13:51:01;;;;;;;;;;;14.10;99.90;;;;;;5992819;23;19964;-96
2022/10/10 13:53:30;;;;;;;;;;;14.10;99.90;;;;;;5994305;23;19918;-94
2022/10/10 13:55:59;;;;;;;;;;;14.10;99.90;;;;;;5995789;23;19914;-95
2022/10/10 13:58:26;;;;;;;;;;;14.00;99.90;;;;;;5998392;23;19921;-93
2022/10/10 14:00:56;;;;;;;;;;;14.00;99.90;;;;;;5998361;23;19921;-95
2022/10/10 14:03:22;;;;;;;;;;;14.00;99.90;;;;;;6008168;23;19914;-96
2022/10/10 14:05:49;;;;;;;;;;;14.00;99.90;;;;;;6034898;23;19936;-96
2022/10/10 14:10:08;;;;;;;17.77;12.55;;;14.00;99.90;;;;;;5110528;27;20397;-96
2022/10/10 14:12:57;;;;;;;18.50;13.40;;;14.10;99.90;;;;;;5084315;28;20059;-94
2022/10/10 14:15:34;;;;;;;17.35;13.23;;;14.10;99.90;;;;;;5102411;28;20040;-91
2022/10/10 14:18:01;;;;;;;10.98;7.38;;;14.10;99.90;;;;;;5078649;28;20044;-93
2022/10/10 14:20:27;;;;;;;9.80;4.45;;;14.10;99.90;;;;;;5069633;28;20036;-93
2022/10/10 14:22:52;;;;;;;8.13;2.88;;;13.80;99.90;;;;;;5066073;28;20143;-96
2022/10/10 14:25:18;;;;;;;7.22;2.10;;;13.70;99.90;;;;;;5102636;28;20060;-92
2022/10/10 14:27:44;;;;;;;7.65;1.90;;;13.50;99.90;;;;;;5071826;28;20172;-94
2022/10/10 14:30:13;;;;;;;7.00;1.80;;;13.30;99.90;;;;;;5094030;28;20612;-95
2022/10/10 14:32:39;;;;;;;8.63;1.83;;;13.20;99.90;;;;;;5089375;28;20052;-93
2022/10/10 14:35:05;;;;;;;7.70;1.90;;;13.10;99.90;;;;;;5065884;28;20046;-96
2022/10/10 14:37:31;;;;;;;6.53;1.60;;;13.00;99.90;;;;;;5091762;28;20400;-96
